sensor_id;sensor_type;location;lat;lon;timestamp;P1;durP1;ratioP1;P2;durP2;ratioP2
36799;SDS011;22752;51.960;5.886;2023-06-26T00:01:59;5.43;;;4.70;;
36799;SDS011;22752;51.960;5.886;2023-06-26T00:04:24;5.45;;;4.95;;
36799;SDS011;22752;51.960;5.886;2023-06-26T00:06:50;5.75;;;5.18;;
36799;SDS011;22752;51.960;5.886;2023-06-26T00:09:15;5.38;;;4.55;;
36799;SDS011;22752;51.960;5.886;2023-06-26T00:11:41;6.07;;;5.18;;
36799;SDS011;22752;51.960;5.886;2023-06-26T00:14:07;6.70;;;5.60;;
36799;SDS011;22752;51.960;5.886;2023-06-26T00:16:32;7.60;;;5.55;;
36799;SDS011;22752;51.960;5.886;2023-06-26T00:18:58;5.40;;;4.90;;
36799;SDS011;22752;51.960;5.886;2023-06-26T00:21:24;7.75;;;6.93;;
36799;SDS011;22752;51.960;5.886;2023-06-26T00:23:50;6.50;;;5.80;;
36799;SDS011;22752;51.960;5.886;2023-06-26T00:26:16;6.97;;;6.28;;
36799;SDS011;22752;51.960;5.886;2023-06-26T00:28:42;6.15;;;5.53;;
36799;SDS011;22752;51.960;5.886;2023-06-26T00:31:08;7.38;;;6.07;;
36799;SDS011;22752;51.960;5.886;2023-06-26T00:33:33;6.53;;;5.85;;
36799;SDS011;22752;51.960;5.886;2023-06-26T00:35:59;7.25;;;5.97;;
36799;SDS011;22752;51.960;5.886;2023-06-26T00:38:25;7.72;;;5.25;;
36799;SDS011;22752;51.960;5.886;2023-06-26T00:40:50;6.95;;;5.57;;
36799;SDS011;22752;51.960;5.886;2023-06-26T00:43:16;6.60;;;5.75;;
36799;SDS011;22752;51.960;5.886;2023-06-26T00:45:42;6.68;;;6.07;;
36799;SDS011;22752;51.960;5.886;2023-06-26T00:48:09;6.97;;;5.75;;
36799;SDS011;22752;51.960;5.886;2023-06-26T00:50:37;6.55;;;5.85;;
36799;SDS011;22752;51.960;5.886;2023-06-26T00:53:03;6.60;;;5.93;;
36799;SDS011;22752;51.960;5.886;2023-06-26T00:55:29;6.53;;;5.93;;
36799;SDS011;22752;51.960;5.886;2023-06-26T00:57:55;8.32;;;7.00;;
36799;SDS011;22752;51.960;5.886;2023-06-26T01:00:21;7.30;;;6.60;;
36799;SDS011;22752;51.960;5.886;2023-06-26T01:02:47;6.78;;;6.07;;
36799;SDS011;22752;51.960;5.886;2023-06-26T01:05:13;7.82;;;6.70;;
36799;SDS011;22752;51.960;5.886;2023-06-26T01:07:48;6.75;;;6.05;;
36799;SDS011;22752;51.960;5.886;2023-06-26T01:10:16;6.30;;;5.70;;
36799;SDS011;22752;51.960;5.886;2023-06-26T01:12:42;5.78;;;5.28;;
36799;SDS011;22752;51.960;5.886;2023-06-26T01:15:08;6.22;;;5.60;;
36799;SDS011;22752;51.960;5.886;2023-06-26T01:17:34;6.70;;;6.00;;
36799;SDS011;22752;51.960;5.886;2023-06-26T01:20:03;6.57;;;5.90;;
36799;SDS011;22752;51.960;5.886;2023-06-26T01:28:06;7.63;;;6.05;;
36799;SDS011;22752;51.960;5.886;2023-06-26T01:30:34;6.82;;;6.10;;
36799;SDS011;22752;51.960;5.886;2023-06-26T01:33:03;6.22;;;5.63;;
36799;SDS011;22752;51.960;5.886;2023-06-26T01:35:29;6.43;;;5.78;;
36799;SDS011;22752;51.960;5.886;2023-06-26T01:38:10;6.78;;;6.10;;
36799;SDS011;22752;51.960;5.886;2023-06-26T01:40:48;6.25;;;5.60;;
36799;SDS011;22752;51.960;5.886;2023-06-26T01:45:59;7.78;;;6.82;;
36799;SDS011;22752;51.960;5.886;2023-06-26T01:48:34;8.07;;;6.88;;
36799;SDS011;22752;51.960;5.886;2023-06-26T01:51:05;10.85;;;7.88;;
36799;SDS011;22752;51.960;5.886;2023-06-26T01:53:36;10.38;;;8.05;;
36799;SDS011;22752;51.960;5.886;2023-06-26T01:56:10;10.55;;;8.85;;
36799;SDS011;22752;51.960;5.886;2023-06-26T01:58:40;10.35;;;9.30;;
36799;SDS011;22752;51.960;5.886;2023-06-26T02:01:09;10.20;;;7.80;;
36799;SDS011;22752;51.960;5.886;2023-06-26T02:03:35;9.82;;;7.68;;
36799;SDS011;22752;51.960;5.886;2023-06-26T02:06:01;9.07;;;7.97;;
36799;SDS011;22752;51.960;5.886;2023-06-26T02:08:26;10.65;;;8.27;;
36799;SDS011;22752;51.960;5.886;2023-06-26T02:10:52;11.68;;;8.18;;
36799;SDS011;22752;51.960;5.886;2023-06-26T02:13:18;9.20;;;7.60;;
36799;SDS011;22752;51.960;5.886;2023-06-26T02:15:43;10.23;;;7.85;;
36799;SDS011;22752;51.960;5.886;2023-06-26T02:18:09;8.35;;;7.45;;
36799;SDS011;22752;51.960;5.886;2023-06-26T02:20:35;8.70;;;7.72;;
36799;SDS011;22752;51.960;5.886;2023-06-26T02:23:00;12.77;;;8.68;;
36799;SDS011;22752;51.960;5.886;2023-06-26T02:25:26;9.13;;;7.57;;
36799;SDS011;22752;51.960;5.886;2023-06-26T02:27:52;11.18;;;6.93;;
36799;SDS011;22752;51.960;5.886;2023-06-26T02:30:18;11.20;;;6.00;;
36799;SDS011;22752;51.960;5.886;2023-06-26T02:32:43;11.68;;;6.35;;
36799;SDS011;22752;51.960;5.886;2023-06-26T02:35:10;9.38;;;5.50;;
36799;SDS011;22752;51.960;5.886;2023-06-26T02:37:35;8.38;;;5.05;;
36799;SDS011;22752;51.960;5.886;2023-06-26T02:40:01;7.15;;;4.75;;
36799;SDS011;22752;51.960;5.886;2023-06-26T02:42:28;8.38;;;4.80;;
36799;SDS011;22752;51.960;5.886;2023-06-26T02:44:54;9.32;;;4.72;;
36799;SDS011;22752;51.960;5.886;2023-06-26T02:47:20;11.02;;;4.47;;
36799;SDS011;22752;51.960;5.886;2023-06-26T02:49:45;9.45;;;4.70;;
36799;SDS011;22752;51.960;5.886;2023-06-26T02:52:11;12.85;;;5.13;;
36799;SDS011;22752;51.960;5.886;2023-06-26T02:54:37;9.38;;;5.15;;
36799;SDS011;22752;51.960;5.886;2023-06-26T02:57:02;9.15;;;4.35;;
36799;SDS011;22752;51.960;5.886;2023-06-26T02:59:28;8.55;;;4.18;;
36799;SDS011;22752;51.960;5.886;2023-06-26T03:01:54;6.80;;;4.30;;
36799;SDS011;22752;51.960;5.886;2023-06-26T03:04:19;7.28;;;4.07;;
36799;SDS011;22752;51.960;5.886;2023-06-26T03:06:46;7.28;;;3.83;;
36799;SDS011;22752;51.960;5.886;2023-06-26T03:09:12;8.27;;;4.40;;
36799;SDS011;22752;51.960;5.886;2023-06-26T03:11:38;9.27;;;4.63;;
36799;SDS011;22752;51.960;5.886;2023-06-26T03:14:03;7.90;;;4.47;;
36799;SDS011;22752;51.960;5.886;2023-06-26T03:16:29;8.88;;;4.63;;
36799;SDS011;22752;51.960;5.886;2023-06-26T03:18:55;9.98;;;4.78;;
36799;SDS011;22752;51.960;5.886;2023-06-26T03:21:20;12.50;;;4.90;;
36799;SDS011;22752;51.960;5.886;2023-06-26T03:23:46;10.30;;;4.35;;
36799;SDS011;22752;51.960;5.886;2023-06-26T03:26:11;8.93;;;5.13;;
36799;SDS011;22752;51.960;5.886;2023-06-26T03:28:39;9.65;;;4.82;;
36799;SDS011;22752;51.960;5.886;2023-06-26T03:31:05;10.75;;;4.72;;
36799;SDS011;22752;51.960;5.886;2023-06-26T03:33:31;10.55;;;4.50;;
36799;SDS011;22752;51.960;5.886;2023-06-26T03:35:56;8.85;;;4.47;;
36799;SDS011;22752;51.960;5.886;2023-06-26T03:38:24;10.75;;;4.63;;
36799;SDS011;22752;51.960;5.886;2023-06-26T03:40:50;8.77;;;4.20;;
36799;SDS011;22752;51.960;5.886;2023-06-26T03:43:17;8.93;;;4.20;;
36799;SDS011;22752;51.960;5.886;2023-06-26T03:45:42;10.30;;;5.03;;
36799;SDS011;22752;51.960;5.886;2023-06-26T03:48:08;11.25;;;5.05;;
36799;SDS011;22752;51.960;5.886;2023-06-26T03:50:34;12.90;;;5.55;;
36799;SDS011;22752;51.960;5.886;2023-06-26T03:52:59;11.00;;;4.60;;
36799;SDS011;22752;51.960;5.886;2023-06-26T03:55:25;8.48;;;4.30;;
36799;SDS011;22752;51.960;5.886;2023-06-26T03:57:50;10.20;;;4.65;;
36799;SDS011;22752;51.960;5.886;2023-06-26T04:00:16;9.15;;;5.10;;
36799;SDS011;22752;51.960;5.886;2023-06-26T04:02:42;9.95;;;5.07;;
36799;SDS011;22752;51.960;5.886;2023-06-26T04:05:08;11.15;;;4.45;;
36799;SDS011;22752;51.960;5.886;2023-06-26T04:07:34;12.52;;;4.75;;
36799;SDS011;22752;51.960;5.886;2023-06-26T04:10:00;16.30;;;5.55;;
36799;SDS011;22752;51.960;5.886;2023-06-26T04:12:27;14.52;;;5.72;;
36799;SDS011;22752;51.960;5.886;2023-06-26T04:14:52;11.35;;;4.70;;
36799;SDS011;22752;51.960;5.886;2023-06-26T04:17:18;14.40;;;4.90;;
36799;SDS011;22752;51.960;5.886;2023-06-26T04:19:43;13.68;;;5.10;;
36799;SDS011;22752;51.960;5.886;2023-06-26T04:22:09;12.70;;;5.47;;
36799;SDS011;22752;51.960;5.886;2023-06-26T04:24:35;15.68;;;5.47;;
36799;SDS011;22752;51.960;5.886;2023-06-26T04:27:00;14.60;;;5.63;;
36799;SDS011;22752;51.960;5.886;2023-06-26T04:29:26;16.23;;;5.13;;
36799;SDS011;22752;51.960;5.886;2023-06-26T04:31:52;14.07;;;5.47;;
36799;SDS011;22752;51.960;5.886;2023-06-26T04:34:22;12.02;;;5.45;;
36799;SDS011;22752;51.960;5.886;2023-06-26T04:36:49;19.60;;;6.07;;
36799;SDS011;22752;51.960;5.886;2023-06-26T04:39:15;17.63;;;5.22;;
36799;SDS011;22752;51.960;5.886;2023-06-26T04:41:41;16.98;;;6.03;;
36799;SDS011;22752;51.960;5.886;2023-06-26T04:44:07;18.50;;;5.65;;
36799;SDS011;22752;51.960;5.886;2023-06-26T04:46:32;16.40;;;5.30;;
36799;SDS011;22752;51.960;5.886;2023-06-26T04:48:58;15.63;;;5.93;;
36799;SDS011;22752;51.960;5.886;2023-06-26T04:51:27;13.02;;;4.97;;
36799;SDS011;22752;51.960;5.886;2023-06-26T04:53:53;14.27;;;5.55;;
36799;SDS011;22752;51.960;5.886;2023-06-26T04:56:19;14.05;;;5.63;;
36799;SDS011;22752;51.960;5.886;2023-06-26T04:58:45;17.35;;;6.15;;
36799;SDS011;22752;51.960;5.886;2023-06-26T05:01:10;13.35;;;5.53;;
36799;SDS011;22752;51.960;5.886;2023-06-26T05:03:40;13.30;;;5.75;;
36799;SDS011;22752;51.960;5.886;2023-06-26T05:06:06;15.90;;;6.00;;
36799;SDS011;22752;51.960;5.886;2023-06-26T05:08:31;19.02;;;5.15;;
36799;SDS011;22752;51.960;5.886;2023-06-26T05:10:57;16.02;;;5.40;;
36799;SDS011;22752;51.960;5.886;2023-06-26T05:13:26;15.75;;;5.20;;
36799;SDS011;22752;51.960;5.886;2023-06-26T05:15:52;15.10;;;4.68;;
36799;SDS011;22752;51.960;5.886;2023-06-26T05:18:18;12.75;;;5.55;;
36799;SDS011;22752;51.960;5.886;2023-06-26T05:20:44;17.35;;;5.57;;
36799;SDS011;22752;51.960;5.886;2023-06-26T05:23:13;11.38;;;5.18;;
36799;SDS011;22752;51.960;5.886;2023-06-26T05:25:38;16.27;;;5.18;;
36799;SDS011;22752;51.960;5.886;2023-06-26T05:28:05;12.95;;;5.15;;
36799;SDS011;22752;51.960;5.886;2023-06-26T05:30:33;14.15;;;4.75;;
36799;SDS011;22752;51.960;5.886;2023-06-26T05:33:00;12.63;;;4.75;;
36799;SDS011;22752;51.960;5.886;2023-06-26T05:35:30;10.48;;;4.68;;
36799;SDS011;22752;51.960;5.886;2023-06-26T05:37:56;15.07;;;5.40;;
36799;SDS011;22752;51.960;5.886;2023-06-26T05:40:23;13.50;;;4.82;;
36799;SDS011;22752;51.960;5.886;2023-06-26T05:42:49;10.23;;;4.40;;
36799;SDS011;22752;51.960;5.886;2023-06-26T05:45:15;11.68;;;5.05;;
36799;SDS011;22752;51.960;5.886;2023-06-26T05:47:40;13.10;;;4.45;;
36799;SDS011;22752;51.960;5.886;2023-06-26T05:50:07;10.57;;;4.03;;
36799;SDS011;22752;51.960;5.886;2023-06-26T05:52:34;10.05;;;3.92;;
36799;SDS011;22752;51.960;5.886;2023-06-26T05:55:00;14.52;;;4.38;;
36799;SDS011;22752;51.960;5.886;2023-06-26T05:57:27;8.85;;;3.78;;
36799;SDS011;22752;51.960;5.886;2023-06-26T05:59:54;7.63;;;3.72;;
36799;SDS011;22752;51.960;5.886;2023-06-26T06:02:20;10.07;;;4.07;;
36799;SDS011;22752;51.960;5.886;2023-06-26T06:04:45;9.02;;;4.05;;
36799;SDS011;22752;51.960;5.886;2023-06-26T06:07:11;10.30;;;3.90;;
36799;SDS011;22752;51.960;5.886;2023-06-26T06:09:37;10.20;;;3.95;;
36799;SDS011;22752;51.960;5.886;2023-06-26T06:12:04;7.35;;;3.88;;
36799;SDS011;22752;51.960;5.886;2023-06-26T06:14:33;9.38;;;3.55;;
36799;SDS011;22752;51.960;5.886;2023-06-26T06:16:59;6.50;;;3.47;;
36799;SDS011;22752;51.960;5.886;2023-06-26T06:19:25;6.95;;;3.60;;
36799;SDS011;22752;51.960;5.886;2023-06-26T06:21:50;5.20;;;3.47;;
36799;SDS011;22752;51.960;5.886;2023-06-26T06:24:16;14.15;;;3.65;;
36799;SDS011;22752;51.960;5.886;2023-06-26T06:26:42;7.88;;;3.38;;
36799;SDS011;22752;51.960;5.886;2023-06-26T06:29:08;5.28;;;3.05;;
36799;SDS011;22752;51.960;5.886;2023-06-26T06:31:33;6.97;;;2.83;;
36799;SDS011;22752;51.960;5.886;2023-06-26T06:33:59;5.80;;;2.38;;
36799;SDS011;22752;51.960;5.886;2023-06-26T06:36:25;5.90;;;2.50;;
36799;SDS011;22752;51.960;5.886;2023-06-26T06:38:50;9.23;;;2.80;;
36799;SDS011;22752;51.960;5.886;2023-06-26T06:41:16;6.03;;;2.90;;
36799;SDS011;22752;51.960;5.886;2023-06-26T06:43:42;8.82;;;2.28;;
36799;SDS011;22752;51.960;5.886;2023-06-26T06:46:08;3.42;;;2.20;;
36799;SDS011;22752;51.960;5.886;2023-06-26T06:48:33;5.25;;;2.30;;
36799;SDS011;22752;51.960;5.886;2023-06-26T06:51:00;3.45;;;2.00;;
36799;SDS011;22752;51.960;5.886;2023-06-26T06:53:26;5.75;;;2.42;;
36799;SDS011;22752;51.960;5.886;2023-06-26T06:55:51;3.35;;;2.13;;
36799;SDS011;22752;51.960;5.886;2023-06-26T06:58:17;2.83;;;1.92;;
36799;SDS011;22752;51.960;5.886;2023-06-26T07:00:45;4.60;;;2.75;;
36799;SDS011;22752;51.960;5.886;2023-06-26T07:03:11;5.05;;;2.60;;
36799;SDS011;22752;51.960;5.886;2023-06-26T07:05:37;5.43;;;2.17;;
36799;SDS011;22752;51.960;5.886;2023-06-26T07:08:03;5.18;;;2.75;;
36799;SDS011;22752;51.960;5.886;2023-06-26T07:10:29;5.53;;;2.40;;
36799;SDS011;22752;51.960;5.886;2023-06-26T07:12:55;7.35;;;2.35;;
36799;SDS011;22752;51.960;5.886;2023-06-26T07:15:20;4.60;;;2.15;;
36799;SDS011;22752;51.960;5.886;2023-06-26T07:17:46;4.13;;;2.20;;
36799;SDS011;22752;51.960;5.886;2023-06-26T07:20:12;2.67;;;2.10;;
36799;SDS011;22752;51.960;5.886;2023-06-26T07:22:40;4.38;;;2.20;;
36799;SDS011;22752;51.960;5.886;2023-06-26T07:25:08;5.15;;;2.45;;
36799;SDS011;22752;51.960;5.886;2023-06-26T07:27:35;6.38;;;2.60;;
36799;SDS011;22752;51.960;5.886;2023-06-26T07:30:01;7.35;;;2.47;;
36799;SDS011;22752;51.960;5.886;2023-06-26T07:32:27;4.30;;;2.13;;
36799;SDS011;22752;51.960;5.886;2023-06-26T07:34:53;5.47;;;2.92;;
36799;SDS011;22752;51.960;5.886;2023-06-26T07:37:18;4.65;;;2.17;;
36799;SDS011;22752;51.960;5.886;2023-06-26T07:39:44;4.45;;;1.92;;
36799;SDS011;22752;51.960;5.886;2023-06-26T07:42:09;4.13;;;2.30;;
36799;SDS011;22752;51.960;5.886;2023-06-26T07:44:35;6.25;;;2.45;;
36799;SDS011;22752;51.960;5.886;2023-06-26T07:47:01;6.20;;;2.28;;
36799;SDS011;22752;51.960;5.886;2023-06-26T07:49:27;4.97;;;2.50;;
36799;SDS011;22752;51.960;5.886;2023-06-26T07:51:53;7.35;;;2.60;;
36799;SDS011;22752;51.960;5.886;2023-06-26T07:54:18;5.40;;;2.65;;
36799;SDS011;22752;51.960;5.886;2023-06-26T07:56:57;7.78;;;3.00;;
36799;SDS011;22752;51.960;5.886;2023-06-26T07:59:25;5.75;;;2.72;;
36799;SDS011;22752;51.960;5.886;2023-06-26T08:01:52;3.92;;;2.42;;
36799;SDS011;22752;51.960;5.886;2023-06-26T08:04:20;4.78;;;2.35;;
36799;SDS011;22752;51.960;5.886;2023-06-26T08:06:51;5.65;;;2.50;;
36799;SDS011;22752;51.960;5.886;2023-06-26T08:09:22;4.93;;;2.40;;
36799;SDS011;22752;51.960;5.886;2023-06-26T08:11:49;5.32;;;2.40;;
36799;SDS011;22752;51.960;5.886;2023-06-26T08:14:15;3.67;;;2.45;;
36799;SDS011;22752;51.960;5.886;2023-06-26T08:16:42;6.10;;;2.40;;
36799;SDS011;22752;51.960;5.886;2023-06-26T08:19:08;4.90;;;2.38;;
36799;SDS011;22752;51.960;5.886;2023-06-26T08:21:35;4.07;;;2.28;;
36799;SDS011;22752;51.960;5.886;2023-06-26T08:24:01;3.47;;;2.15;;
36799;SDS011;22752;51.960;5.886;2023-06-26T08:26:27;4.38;;;2.60;;
36799;SDS011;22752;51.960;5.886;2023-06-26T08:28:53;4.53;;;2.10;;
36799;SDS011;22752;51.960;5.886;2023-06-26T08:31:19;8.40;;;3.70;;
36799;SDS011;22752;51.960;5.886;2023-06-26T08:33:45;6.70;;;3.08;;
36799;SDS011;22752;51.960;5.886;2023-06-26T08:36:11;7.63;;;2.78;;
36799;SDS011;22752;51.960;5.886;2023-06-26T08:38:37;5.57;;;2.50;;
36799;SDS011;22752;51.960;5.886;2023-06-26T08:41:05;5.50;;;2.53;;
36799;SDS011;22752;51.960;5.886;2023-06-26T08:43:31;4.78;;;2.67;;
36799;SDS011;22752;51.960;5.886;2023-06-26T08:45:57;6.38;;;2.63;;
36799;SDS011;22752;51.960;5.886;2023-06-26T08:48:23;5.97;;;2.70;;
36799;SDS011;22752;51.960;5.886;2023-06-26T08:50:49;6.47;;;2.80;;
36799;SDS011;22752;51.960;5.886;2023-06-26T08:53:23;5.22;;;2.35;;
36799;SDS011;22752;51.960;5.886;2023-06-26T08:55:58;6.32;;;2.22;;
36799;SDS011;22752;51.960;5.886;2023-06-26T08:58:25;5.90;;;3.13;;
36799;SDS011;22752;51.960;5.886;2023-06-26T09:00:50;6.95;;;2.40;;
36799;SDS011;22752;51.960;5.886;2023-06-26T09:03:16;5.88;;;2.20;;
36799;SDS011;22752;51.960;5.886;2023-06-26T09:05:42;5.05;;;2.25;;
36799;SDS011;22752;51.960;5.886;2023-06-26T09:08:08;3.83;;;2.25;;
36799;SDS011;22752;51.960;5.886;2023-06-26T09:10:33;5.97;;;2.03;;
36799;SDS011;22752;51.960;5.886;2023-06-26T09:12:59;6.07;;;2.30;;
36799;SDS011;22752;51.960;5.886;2023-06-26T09:15:36;4.72;;;2.08;;
36799;SDS011;22752;51.960;5.886;2023-06-26T09:18:08;4.43;;;2.00;;
36799;SDS011;22752;51.960;5.886;2023-06-26T09:20:34;3.38;;;1.70;;
36799;SDS011;22752;51.960;5.886;2023-06-26T09:23:00;3.97;;;1.90;;
36799;SDS011;22752;51.960;5.886;2023-06-26T09:25:27;4.40;;;1.70;;
36799;SDS011;22752;51.960;5.886;2023-06-26T09:27:53;4.28;;;1.45;;
36799;SDS011;22752;51.960;5.886;2023-06-26T09:30:19;4.40;;;1.40;;
36799;SDS011;22752;51.960;5.886;2023-06-26T09:32:46;3.85;;;1.50;;
36799;SDS011;22752;51.960;5.886;2023-06-26T09:35:12;4.90;;;1.90;;
36799;SDS011;22752;51.960;5.886;2023-06-26T09:37:37;2.97;;;1.70;;
36799;SDS011;22752;51.960;5.886;2023-06-26T09:40:04;5.00;;;1.73;;
36799;SDS011;22752;51.960;5.886;2023-06-26T09:42:30;5.82;;;2.00;;
36799;SDS011;22752;51.960;5.886;2023-06-26T09:44:56;5.35;;;1.65;;
36799;SDS011;22752;51.960;5.886;2023-06-26T09:47:23;4.10;;;1.63;;
36799;SDS011;22752;51.960;5.886;2023-06-26T09:49:49;5.32;;;1.63;;
36799;SDS011;22752;51.960;5.886;2023-06-26T09:52:17;6.88;;;1.83;;
36799;SDS011;22752;51.960;5.886;2023-06-26T09:54:43;8.02;;;1.60;;
36799;SDS011;22752;51.960;5.886;2023-06-26T09:57:12;4.38;;;1.38;;
36799;SDS011;22752;51.960;5.886;2023-06-26T09:59:41;6.18;;;1.85;;
36799;SDS011;22752;51.960;5.886;2023-06-26T10:02:07;7.45;;;1.80;;
36799;SDS011;22752;51.960;5.886;2023-06-26T10:04:34;7.03;;;1.75;;
36799;SDS011;22752;51.960;5.886;2023-06-26T10:07:06;3.83;;;1.80;;
36799;SDS011;22752;51.960;5.886;2023-06-26T10:09:36;7.57;;;2.40;;
36799;SDS011;22752;51.960;5.886;2023-06-26T10:12:06;4.70;;;1.30;;
36799;SDS011;22752;51.960;5.886;2023-06-26T10:14:53;6.53;;;1.77;;
36799;SDS011;22752;51.960;5.886;2023-06-26T10:17:20;5.22;;;2.40;;
36799;SDS011;22752;51.960;5.886;2023-06-26T10:19:47;6.85;;;1.75;;
36799;SDS011;22752;51.960;5.886;2023-06-26T10:22:17;5.78;;;1.77;;
36799;SDS011;22752;51.960;5.886;2023-06-26T10:24:45;2.05;;;1.33;;
36799;SDS011;22752;51.960;5.886;2023-06-26T10:27:14;3.47;;;1.30;;
36799;SDS011;22752;51.960;5.886;2023-06-26T10:29:43;8.05;;;1.50;;
36799;SDS011;22752;51.960;5.886;2023-06-26T10:32:11;4.03;;;1.58;;
36799;SDS011;22752;51.960;5.886;2023-06-26T10:34:39;5.90;;;1.90;;
36799;SDS011;22752;51.960;5.886;2023-06-26T10:37:04;8.05;;;2.13;;
36799;SDS011;22752;51.960;5.886;2023-06-26T10:42:15;6.63;;;1.92;;
36799;SDS011;22752;51.960;5.886;2023-06-26T10:44:45;3.88;;;1.77;;
36799;SDS011;22752;51.960;5.886;2023-06-26T10:47:28;5.70;;;1.50;;
36799;SDS011;22752;51.960;5.886;2023-06-26T10:49:54;5.30;;;1.63;;
36799;SDS011;22752;51.960;5.886;2023-06-26T10:52:20;5.63;;;1.40;;
36799;SDS011;22752;51.960;5.886;2023-06-26T10:54:46;4.32;;;1.35;;
36799;SDS011;22752;51.960;5.886;2023-06-26T10:57:11;6.05;;;1.30;;
36799;SDS011;22752;51.960;5.886;2023-06-26T10:59:49;2.75;;;1.40;;
36799;SDS011;22752;51.960;5.886;2023-06-26T11:02:49;4.40;;;1.42;;
36799;SDS011;22752;51.960;5.886;2023-06-26T11:08:10;4.18;;;1.70;;
36799;SDS011;22752;51.960;5.886;2023-06-26T11:10:53;3.20;;;1.40;;
36799;SDS011;22752;51.960;5.886;2023-06-26T11:13:24;3.47;;;1.33;;
36799;SDS011;22752;51.960;5.886;2023-06-26T11:15:51;4.20;;;1.88;;
36799;SDS011;22752;51.960;5.886;2023-06-26T11:18:17;4.78;;;1.60;;
36799;SDS011;22752;51.960;5.886;2023-06-26T11:20:43;5.88;;;1.60;;
36799;SDS011;22752;51.960;5.886;2023-06-26T11:23:09;3.80;;;1.45;;
36799;SDS011;22752;51.960;5.886;2023-06-26T11:25:36;4.25;;;1.50;;
36799;SDS011;22752;51.960;5.886;2023-06-26T11:28:03;5.38;;;1.25;;
36799;SDS011;22752;51.960;5.886;2023-06-26T11:30:34;4.40;;;1.63;;
36799;SDS011;22752;51.960;5.886;2023-06-26T11:33:06;2.75;;;1.45;;
36799;SDS011;22752;51.960;5.886;2023-06-26T11:35:33;4.60;;;1.48;;
36799;SDS011;22752;51.960;5.886;2023-06-26T11:38:00;3.95;;;1.15;;
36799;SDS011;22752;51.960;5.886;2023-06-26T11:40:30;7.10;;;1.05;;
36799;SDS011;22752;51.960;5.886;2023-06-26T11:43:00;4.47;;;1.35;;
36799;SDS011;22752;51.960;5.886;2023-06-26T11:45:30;5.38;;;1.52;;
36799;SDS011;22752;51.960;5.886;2023-06-26T11:47:57;6.70;;;1.63;;
36799;SDS011;22752;51.960;5.886;2023-06-26T11:50:24;3.80;;;1.27;;
36799;SDS011;22752;51.960;5.886;2023-06-26T11:52:56;7.57;;;1.50;;
36799;SDS011;22752;51.960;5.886;2023-06-26T11:55:23;2.25;;;1.20;;
36799;SDS011;22752;51.960;5.886;2023-06-26T11:57:50;2.72;;;1.10;;
36799;SDS011;22752;51.960;5.886;2023-06-26T12:00:18;5.00;;;1.58;;
36799;SDS011;22752;51.960;5.886;2023-06-26T12:02:44;4.25;;;1.48;;
36799;SDS011;22752;51.960;5.886;2023-06-26T12:05:11;5.22;;;1.30;;
36799;SDS011;22752;51.960;5.886;2023-06-26T12:07:39;5.00;;;1.20;;
36799;SDS011;22752;51.960;5.886;2023-06-26T12:10:07;4.30;;;1.98;;
36799;SDS011;22752;51.960;5.886;2023-06-26T12:12:35;5.55;;;1.33;;
36799;SDS011;22752;51.960;5.886;2023-06-26T12:15:01;2.33;;;1.15;;
36799;SDS011;22752;51.960;5.886;2023-06-26T12:17:27;3.42;;;1.40;;
36799;SDS011;22752;51.960;5.886;2023-06-26T12:19:53;3.35;;;1.40;;
36799;SDS011;22752;51.960;5.886;2023-06-26T12:22:19;4.05;;;1.35;;
36799;SDS011;22752;51.960;5.886;2023-06-26T12:24:45;2.35;;;1.30;;
36799;SDS011;22752;51.960;5.886;2023-06-26T12:27:12;4.40;;;1.35;;
36799;SDS011;22752;51.960;5.886;2023-06-26T12:29:40;2.15;;;1.05;;
36799;SDS011;22752;51.960;5.886;2023-06-26T12:32:12;1.88;;;1.02;;
36799;SDS011;22752;51.960;5.886;2023-06-26T12:34:39;4.30;;;1.23;;
36799;SDS011;22752;51.960;5.886;2023-06-26T12:37:06;3.22;;;1.35;;
36799;SDS011;22752;51.960;5.886;2023-06-26T12:42:13;1.90;;;1.10;;
36799;SDS011;22752;51.960;5.886;2023-06-26T12:44:43;3.05;;;1.33;;
36799;SDS011;22752;51.960;5.886;2023-06-26T12:47:09;3.08;;;1.38;;
36799;SDS011;22752;51.960;5.886;2023-06-26T12:49:38;1.73;;;1.40;;
36799;SDS011;22752;51.960;5.886;2023-06-26T12:52:07;1.45;;;1.25;;
36799;SDS011;22752;51.960;5.886;2023-06-26T12:54:34;4.82;;;1.00;;
36799;SDS011;22752;51.960;5.886;2023-06-26T12:57:00;1.52;;;1.00;;
36799;SDS011;22752;51.960;5.886;2023-06-26T12:59:26;3.00;;;1.20;;
36799;SDS011;22752;51.960;5.886;2023-06-26T13:01:52;3.35;;;1.75;;
36799;SDS011;22752;51.960;5.886;2023-06-26T13:04:18;2.80;;;1.17;;
36799;SDS011;22752;51.960;5.886;2023-06-26T13:06:43;4.35;;;1.17;;
36799;SDS011;22752;51.960;5.886;2023-06-26T13:09:09;2.08;;;1.13;;
36799;SDS011;22752;51.960;5.886;2023-06-26T13:11:36;1.35;;;0.95;;
36799;SDS011;22752;51.960;5.886;2023-06-26T13:14:02;2.63;;;1.17;;
36799;SDS011;22752;51.960;5.886;2023-06-26T13:16:28;3.65;;;1.20;;
36799;SDS011;22752;51.960;5.886;2023-06-26T13:18:54;2.55;;;1.20;;
36799;SDS011;22752;51.960;5.886;2023-06-26T13:21:21;2.30;;;1.00;;
36799;SDS011;22752;51.960;5.886;2023-06-26T13:23:46;1.90;;;1.10;;
36799;SDS011;22752;51.960;5.886;2023-06-26T13:26:12;4.68;;;1.20;;
36799;SDS011;22752;51.960;5.886;2023-06-26T13:28:38;4.57;;;1.20;;
36799;SDS011;22752;51.960;5.886;2023-06-26T13:31:03;3.35;;;1.30;;
36799;SDS011;22752;51.960;5.886;2023-06-26T13:33:30;1.65;;;0.93;;
36799;SDS011;22752;51.960;5.886;2023-06-26T13:35:56;1.25;;;0.93;;
36799;SDS011;22752;51.960;5.886;2023-06-26T13:38:22;2.97;;;1.05;;
36799;SDS011;22752;51.960;5.886;2023-06-26T13:40:55;1.60;;;0.95;;
36799;SDS011;22752;51.960;5.886;2023-06-26T13:43:25;2.03;;;0.98;;
36799;SDS011;22752;51.960;5.886;2023-06-26T13:45:52;10.95;;;1.30;;
36799;SDS011;22752;51.960;5.886;2023-06-26T13:48:18;3.92;;;1.00;;
36799;SDS011;22752;51.960;5.886;2023-06-26T13:50:44;1.75;;;0.95;;
36799;SDS011;22752;51.960;5.886;2023-06-26T13:53:10;3.85;;;0.93;;
36799;SDS011;22752;51.960;5.886;2023-06-26T13:55:36;2.33;;;1.05;;
36799;SDS011;22752;51.960;5.886;2023-06-26T13:58:03;2.88;;;0.98;;
36799;SDS011;22752;51.960;5.886;2023-06-26T14:00:30;3.30;;;1.15;;
36799;SDS011;22752;51.960;5.886;2023-06-26T14:02:58;4.65;;;1.23;;
36799;SDS011;22752;51.960;5.886;2023-06-26T14:05:31;3.63;;;1.17;;
36799;SDS011;22752;51.960;5.886;2023-06-26T14:08:01;3.00;;;1.23;;
36799;SDS011;22752;51.960;5.886;2023-06-26T14:10:28;1.45;;;0.90;;
36799;SDS011;22752;51.960;5.886;2023-06-26T14:12:54;3.45;;;1.30;;
36799;SDS011;22752;51.960;5.886;2023-06-26T14:15:19;1.52;;;0.93;;
36799;SDS011;22752;51.960;5.886;2023-06-26T14:17:45;2.45;;;1.13;;
36799;SDS011;22752;51.960;5.886;2023-06-26T14:20:12;1.23;;;0.90;;
36799;SDS011;22752;51.960;5.886;2023-06-26T14:22:39;3.42;;;1.23;;
36799;SDS011;22752;51.960;5.886;2023-06-26T14:25:06;2.25;;;1.10;;
36799;SDS011;22752;51.960;5.886;2023-06-26T14:27:32;3.28;;;1.13;;
36799;SDS011;22752;51.960;5.886;2023-06-26T14:29:57;3.85;;;1.13;;
36799;SDS011;22752;51.960;5.886;2023-06-26T14:32:23;2.80;;;1.02;;
36799;SDS011;22752;51.960;5.886;2023-06-26T14:34:49;5.55;;;1.02;;
36799;SDS011;22752;51.960;5.886;2023-06-26T14:37:14;2.75;;;1.15;;
36799;SDS011;22752;51.960;5.886;2023-06-26T14:39:41;3.03;;;1.10;;
36799;SDS011;22752;51.960;5.886;2023-06-26T14:42:07;4.43;;;1.20;;
36799;SDS011;22752;51.960;5.886;2023-06-26T14:44:32;1.75;;;0.98;;
36799;SDS011;22752;51.960;5.886;2023-06-26T14:46:58;2.75;;;1.40;;
36799;SDS011;22752;51.960;5.886;2023-06-26T14:49:24;4.13;;;1.20;;
36799;SDS011;22752;51.960;5.886;2023-06-26T14:51:49;6.90;;;1.27;;
36799;SDS011;22752;51.960;5.886;2023-06-26T14:54:15;3.25;;;1.10;;
36799;SDS011;22752;51.960;5.886;2023-06-26T14:56:40;1.88;;;1.08;;
36799;SDS011;22752;51.960;5.886;2023-06-26T14:59:08;2.75;;;1.17;;
36799;SDS011;22752;51.960;5.886;2023-06-26T15:01:35;3.28;;;1.00;;